ěÝzenÝ letovÚho provozu ╚eskÚ republiky
Letiste: LKNA Aktualizace: 27.11.2021 23:29:27  UTC
 METAR LKNA 27.11. 23:30 ...
METAR LKNA 272330Z 11003KT 0800 R12/1100D FZFG OVC002 M01/M01 Q0997 RMK AMB=
 TAF LKNA 27.11. 17:00 ...
TAF LKNA 271700Z 2718/2818 VRB02KT 2000 BR OVC004      TEMPO 2718/2804 0500 FZFG OVC002      BECMG 2804/2806 03005KT      TEMPO 2804/2813 0500 RASN FZFG OVC002      BECMG 2811/2813 33010KT 9999 BKN015=
 WARNING LKNA 27.11. 22:03 ...
LKNA AD WRNG 7 VALID 272300/280500 VIS BLW 800M AND BASE BLW 200FT OBS AND FCST NC=